EmailTwitter


Surface observations / Quebec / CYUL (71627)

Regions: Quebec | Canada | USA | Europe | France | UK | Elsewhere
Station
Display
Info & Location for CYUL (71627) | Help decoding METAR

Weather Conditions observed on 2018/05/26 at 20:00 UTC at MONTREAL INTL A, QB (CYUL)

Sky conditions: variable clouds.

Temperature: 23.0 Celsius.

Dewpoint: 8.0 Celsius.

Relative Humidity: 38%

Humidex: 23.

Winds: Northeast at 9 km/h or 5 knots.

Mean Sea level Pressure: 101.10 kilopascals.

Altimeter Setting (QNH): 101.08 kilopascals or 29.85 inches of mercury.

Horizontal visibility: 15.00 statute miles or 24.00 kilometers.

Coded METAR:

CYUL 262000Z 06005KT 15SM FEW055 FEW080 SCT180 OVC230 23/08 A2985 RMK

CU1AC1AC3CS5 CU TR AC TR SLP110 DENSITY ALT 1100FT=